BT619 / YL-BBX 7700 Squawk Report (13th of June, 2018)

Aircraft B733 Reg No. YL-BBX Age 19 years old
Model 737 Jet engines 2 First flight 14-08-99
Registered 02-05-08 Rollout N/A Delivered 03-09-99
Construction No. 30334 Line No. 3120 Series 36Q
ADSHEX 502C55 Airline name airBaltic Owner Boullion Aviation Services
Airfield based Riga-Skulte~ ~YL First tracked 2011-04-01 17:08:02

Flight history for YL-BBX

Route Flight No Date Playback
???? BT7703 2018-11-15 21:54:00
???? BT7702 2018-11-13 21:39:00
???? BT7701 2018-11-12 15:47:00
Brussels Airport (BRU) - Riga Intl (RIX) BT602 2018-11-12 11:01:00
Riga Intl (RIX) - Brussels Airport (BRU) BT601 2018-11-12 08:11:00
Franz Josef Strauss (MUC) - Riga Intl (RIX) BT224 2018-11-12 05:37:00
Riga Intl (RIX) - Franz Josef Strauss (MUC) BT223 2018-11-11 17:11:00
Kastrup (CPH) - Riga Intl (RIX) BT136 2018-11-10 15:13:00
Riga Intl (RIX) - Kastrup (CPH) BT135 2018-11-10 12:01:00
Arlanda (ARN) - Riga Intl (RIX) BT102 2018-11-10 08:53:00
Riga Intl (RIX) - Arlanda (ARN) BT101 2018-11-10 07:02:00
Schwechat (VIE) - Riga Intl (RIX) BT434 2018-11-10 06:12:00
Riga Intl (RIX) - Schwechat (VIE) BT433 2018-11-09 17:09:00
Schwechat (VIE) - Riga Intl (RIX) BT432 2018-11-09 10:32:00
Riga Intl (RIX) - Schwechat (VIE) BT431 2018-11-09 07:29:00
Vilnius Intl (VNO) - Riga Intl (RIX) BT350 2018-11-09 05:40:00
Schiphol (AMS) - Vilnius Intl (VNO) BT610 2018-11-08 11:40:00
Vilnius Intl (VNO) - Schiphol (AMS) BT609 2018-11-08 09:58:00
Riga Intl (RIX) - Vilnius Intl (VNO) BT349 2018-11-08 06:03:00
Helsinki Vantaa (HEL) - Riga Intl (RIX) BT308 2018-11-07 21:25:00
Time Lat Lon Altitude Heading Speed Vertical Rate
2018-06-13 15:44:47 GMT 55.611595 12.651443 0 222 1 0
2018-06-13 15:44:32 GMT 55.611591 12.651443 0 222 1 0
2018-06-13 15:44:24 GMT 55.611595 12.651443 0 222 0 0
2018-06-13 15:43:49 GMT 55.611595 12.651272 0 222 1 0
2018-06-13 15:43:32 GMT 55.611591 12.651277 0 222 1 0
2018-06-13 15:43:12 GMT 55.611595 12.651272 0 222 1 0
2018-06-13 15:43:05 GMT 55.611595 12.651100 0 222 1 0
2018-06-13 15:42:41 GMT 55.611420 12.651100 0 250 5 0
2018-06-13 15:42:37 GMT 55.611431 12.651090 0 250 7 0
2018-06-13 15:42:33 GMT 55.611256 12.651100 0 222 10 0
2018-06-13 15:42:29 GMT 55.611088 12.651090 0 250 10 0
2018-06-13 15:42:20 GMT 55.610569 12.651272 0 250 11 0
2018-06-13 15:42:08 GMT 55.610058 12.650778 0 250 12 0
2018-06-13 15:42:02 GMT 55.609715 12.650424 0 250 12 0
2018-06-13 15:41:58 GMT 55.609547 12.650263 0 250 12 0
2018-06-13 15:41:55 GMT 55.609371 12.650092 0 222 12 0
2018-06-13 15:41:47 GMT 55.609028 12.649571 0 250 12 0
2018-06-13 15:41:40 GMT 55.608685 12.649217 0 222 12 0
2018-06-13 15:41:12 GMT 55.607487 12.647688 0 222 11 0
2018-06-13 15:40:56 GMT 55.606449 12.646315 0 222 19 0
2018-06-13 15:40:29 GMT 55.605743 12.649134 0 250 36 0
2018-06-13 15:40:22 GMT 55.606079 12.651379 0 247 40 0
2018-06-13 15:40:14 GMT 55.606934 12.653462 0 225 51 0
2018-06-13 15:39:55 GMT 55.613560 12.663657 0 222 145 0
2018-06-13 15:39:41 GMT 55.620804 12.674810 225 222 143 -448
2018-06-13 15:39:28 GMT 55.626617 12.684059 375 222 140 -640
2018-06-13 15:39:21 GMT 55.629868 12.689043 450 221 141 -768
2018-06-13 15:39:15 GMT 55.633137 12.693844 525 220 144 -768
2018-06-13 15:39:11 GMT 55.634949 12.696533 575 222 146 -832
2018-06-13 15:39:06 GMT 55.638245 12.701361 650 222 146 -832
2018-06-13 15:39:03 GMT 55.639343 12.703192 675 222 146 -832
2018-06-13 15:38:59 GMT 55.641331 12.706203 725 221 145 -768
2018-06-13 15:38:54 GMT 55.643921 12.710100 800 221 143 -768
2018-06-13 15:38:49 GMT 55.646358 12.713842 875 221 144 -768
2018-06-13 15:38:43 GMT 55.649414 12.718423 950 221 144 -832
2018-06-13 15:38:37 GMT 55.652298 12.722834 1,025 222 144 -704
2018-06-13 15:38:32 GMT 55.654770 12.726662 1,075 222 143 -704
2018-06-13 15:38:29 GMT 55.656326 12.729076 1,125 221 143 -768
2018-06-13 15:38:20 GMT 55.661392 12.736845 1,250 222 144 -768
2018-06-13 15:38:09 GMT 55.666607 12.744913 1,375 221 146 -832
2018-06-13 15:38:01 GMT 55.670563 12.751007 1,475 222 145 -832
2018-06-13 15:37:57 GMT 55.673126 12.754784 1,550 222 143 -768
2018-06-13 15:37:50 GMT 55.676010 12.759455 1,625 221 143 -832
2018-06-13 15:37:45 GMT 55.678570 12.763281 1,700 221 142 -704
2018-06-13 15:37:40 GMT 55.681038 12.767057 1,750 222 143 -832
2018-06-13 15:37:37 GMT 55.682762 12.769632 1,800 222 144 -768
2018-06-13 15:37:34 GMT 55.684296 12.772036 1,850 221 145 -832
2018-06-13 15:37:30 GMT 55.686310 12.775185 1,900 221 145 -640
2018-06-13 15:37:26 GMT 55.688004 12.777765 1,925 222 146 -640
2018-06-13 15:37:23 GMT 55.690292 12.781261 1,975 221 146 -640
2018-06-13 15:37:19 GMT 55.691849 12.783675 2,000 222 147 -576
2018-06-13 15:37:12 GMT 55.695889 12.789888 2,100 221 153 -768
2018-06-13 15:37:09 GMT 55.697285 12.791948 2,125 221 154 -768
2018-06-13 15:36:58 GMT 55.703156 12.800987 2,275 221 166 -960
2018-06-13 15:36:48 GMT 55.709530 12.810574 2,450 221 177 -960
2018-06-13 15:36:40 GMT 55.714783 12.818465 2,600 222 184 -1216
2018-06-13 15:36:36 GMT 55.717022 12.821989 2,675 221 186 -1216
2018-06-13 15:36:28 GMT 55.722050 12.829800 2,900 222 187 -1280
2018-06-13 15:36:25 GMT 55.724396 12.833529 2,900 221 186 -1088
2018-06-13 15:36:20 GMT 55.727730 12.838812 3,075 222 187 -896
2018-06-13 15:36:16 GMT 55.730198 12.842760 3,125 223 186 -640
2018-06-13 15:36:12 GMT 55.732773 12.846846 3,100 223 186 -576
2018-06-13 15:36:09 GMT 55.734760 12.849798 3,125 223 184 -384
2018-06-13 15:36:05 GMT 55.736984 12.853505 3,125 223 184 -192
2018-06-13 15:36:02 GMT 55.739090 12.857008 3,150 226 183 -128
2018-06-13 15:35:58 GMT 55.741058 12.860746 3,150 229 182 -128
2018-06-13 15:35:55 GMT 55.742981 12.864990 3,150 241 180 0
2018-06-13 15:35:52 GMT 55.743896 12.868319 3,150 252 179 128
2018-06-13 15:35:49 GMT 55.744770 12.873058 3,150 257 178 192
2018-06-13 15:35:44 GMT 55.745468 12.879410 3,150 261 178 0
2018-06-13 15:35:41 GMT 55.745956 12.884383 3,150 261 178 0
2018-06-13 15:35:38 GMT 55.746460 12.888960 3,150 261 178 0
2018-06-13 15:35:34 GMT 55.747009 12.894703 3,150 261 178 0
2018-06-13 15:35:28 GMT 55.747696 12.902860 3,150 261 177 0
2018-06-13 15:35:23 GMT 55.748352 12.910137 3,150 261 177 0
2018-06-13 15:35:18 GMT 55.749237 12.917948 3,150 261 177 0
2018-06-13 15:35:11 GMT 55.750076 12.926531 3,150 261 177 0
2018-06-13 15:35:07 GMT 55.750587 12.932453 3,125 261 177 64
2018-06-13 15:34:59 GMT 55.751797 12.944727 3,125 261 178 -64
2018-06-13 15:34:56 GMT 55.752312 12.950220 3,125 261 178 -64
2018-06-13 15:34:51 GMT 55.752823 12.955711 3,125 261 179 -64
2018-06-13 15:34:48 GMT 55.753510 12.962785 3,150 261 180 -64
2018-06-13 15:34:45 GMT 55.753693 12.964283 3,150 261 180 -64
2018-06-13 15:34:40 GMT 55.754219 12.971592 3,150 261 182 0
2018-06-13 15:34:37 GMT 55.754917 12.977600 3,150 262 187 64
2018-06-13 15:34:33 GMT 55.755249 12.982594 3,125 262 186 64
2018-06-13 15:34:28 GMT 55.755936 12.990917 3,125 262 192 64
2018-06-13 15:34:24 GMT 55.756592 12.997341 3,125 262 199 192
2018-06-13 15:34:17 GMT 55.757629 13.009311 3,100 262 205 0
2018-06-13 15:34:13 GMT 55.757996 13.014471 3,125 261 235 -128
2018-06-13 15:34:06 GMT 55.759201 13.026953 3,125 261 214 192
2018-06-13 15:34:01 GMT 55.759850 13.035707 3,100 261 220 0
2018-06-13 15:33:58 GMT 55.760559 13.041021 3,100 261 220 0
2018-06-13 15:33:55 GMT 55.760925 13.046265 3,100 261 224 0
2018-06-13 15:33:47 GMT 55.762459 13.061113 3,100 260 230 -64
2018-06-13 15:33:44 GMT 55.762939 13.065990 3,100 260 233 0
2018-06-13 15:33:37 GMT 55.764359 13.080056 3,125 262 242 0
2018-06-13 15:33:34 GMT 55.764816 13.085716 3,125 262 244 -192
2018-06-13 15:33:25 GMT 55.766415 13.104029 3,150 261 252 320
2018-06-13 15:33:22 GMT 55.767067 13.110294 3,150 261 252 320
2018-06-13 15:33:15 GMT 55.768250 13.125000 3,150 261 252 0
2018-06-13 15:33:12 GMT 55.768799 13.131325 3,150 261 252 -64
2018-06-13 15:33:06 GMT 55.770000 13.143082 3,150 262 252 -64
2018-06-13 15:33:03 GMT 55.770512 13.149519 3,150 262 252 -64
2018-06-13 15:32:55 GMT 55.771862 13.165054 3,150 262 251 -64
2018-06-13 15:32:52 GMT 55.772560 13.172436 3,150 262 251 -128
2018-06-13 15:32:44 GMT 55.773769 13.187370 3,150 262 250 0
2018-06-13 15:32:41 GMT 55.774284 13.192778 3,150 263 250 -64
2018-06-13 15:32:32 GMT 55.775848 13.214222 3,150 262 250 64
2018-06-13 15:32:23 GMT 55.777401 13.232775 3,150 262 250 -64
2018-06-13 15:32:20 GMT 55.777725 13.236028 3,150 262 250 64
2018-06-13 15:32:11 GMT 55.779449 13.255863 3,150 262 250 -192
2018-06-13 15:32:03 GMT 55.780800 13.272943 3,150 262 249 64
2018-06-13 15:32:00 GMT 55.781296 13.277310 3,150 262 250 128
2018-06-13 15:31:52 GMT 55.782715 13.293623 3,175 261 248 -64
2018-06-13 15:31:49 GMT 55.783218 13.298617 3,175 261 248 64
2018-06-13 15:31:41 GMT 55.784775 13.315596 3,150 261 247 0
2018-06-13 15:31:38 GMT 55.785271 13.320751 3,150 261 247 -64
2018-06-13 15:31:28 GMT 55.787338 13.342479 3,125 261 249 0
2018-06-13 15:31:20 GMT 55.788853 13.357143 3,150 261 254 -256
2018-06-13 15:31:17 GMT 55.789719 13.366117 3,175 261 256 -128
2018-06-13 15:31:10 GMT 55.790909 13.379100 3,150 260 260 -64
2018-06-13 15:31:06 GMT 55.791973 13.389759 3,150 260 260 0
2018-06-13 15:30:58 GMT 55.793324 13.404007 3,175 261 260 0
2018-06-13 15:30:55 GMT 55.794209 13.412762 3,150 264 259 256
2018-06-13 15:30:47 GMT 55.794891 13.428123 3,150 267 260 -192
2018-06-13 15:30:44 GMT 55.795094 13.435850 3,175 267 260 -448
2018-06-13 15:30:37 GMT 55.795578 13.449180 3,225 267 260 -704
2018-06-13 15:30:33 GMT 55.795929 13.461256 3,300 267 260 -896
2018-06-13 15:30:27 GMT 55.796440 13.472500 3,375 268 261 -832
2018-06-13 15:30:22 GMT 55.796490 13.486748 3,450 272 262 -704
2018-06-13 15:30:15 GMT 55.796127 13.495622 3,525 277 261 -576
2018-06-13 15:30:06 GMT 55.794624 13.517561 3,625 278 259 -1088
2018-06-13 15:29:58 GMT 55.793243 13.534324 3,750 278 262 -768
2018-06-13 15:29:54 GMT 55.792904 13.539619 3,775 279 264 -832
2018-06-13 15:29:44 GMT 55.791000 13.562872 3,925 279 264 -832
2018-06-13 15:29:34 GMT 55.789124 13.584095 4,075 279 263 -832
2018-06-13 15:29:24 GMT 55.787064 13.606567 4,225 280 264 -896
2018-06-13 15:29:12 GMT 55.784664 13.631287 4,375 281 263 -768
2018-06-13 15:29:03 GMT 55.781822 13.651199 4,475 290 260 -512
2018-06-13 15:28:51 GMT 55.777313 13.672319 4,575 291 262 -448
2018-06-13 15:28:40 GMT 55.772327 13.694630 4,650 293 261 -448
2018-06-13 15:28:29 GMT 55.767067 13.716087 4,725 294 259 -512
2018-06-13 15:28:20 GMT 55.762756 13.733909 4,825 293 263 -576
2018-06-13 15:28:10 GMT 55.757584 13.754383 4,900 294 263 -512
2018-06-13 15:28:06 GMT 55.755066 13.764954 4,950 293 263 -576
2018-06-13 15:27:59 GMT 55.752640 13.776273 5,025 285 263 -448
2018-06-13 15:27:48 GMT 55.749470 13.798399 5,075 284 263 -512
2018-06-13 15:27:43 GMT 55.747932 13.809214 5,125 284 263 -320
2018-06-13 15:27:38 GMT 55.746414 13.820052 5,150 284 262 -384
2018-06-13 15:27:27 GMT 55.743301 13.842690 5,225 284 262 -512
2018-06-13 15:27:14 GMT 55.739510 13.871269 5,350 284 264 -512
2018-06-13 15:27:06 GMT 55.737122 13.888134 5,425 284 266 -384
2018-06-13 15:26:56 GMT 55.734200 13.909464 5,500 284 264 -448
2018-06-13 15:26:52 GMT 55.732849 13.919420 5,550 284 263 -448
2018-06-13 15:26:45 GMT 55.730942 13.932724 5,600 283 263 -576
2018-06-13 15:26:36 GMT 55.729340 13.952970 5,675 277 263 -512
2018-06-13 15:26:33 GMT 55.729359 13.956499 5,675 272 266 -512
2018-06-13 15:26:29 GMT 55.729202 13.968867 5,725 271 268 -384
2018-06-13 15:26:23 GMT 55.729019 13.978438 5,775 271 268 -448
2018-06-13 15:26:13 GMT 55.728836 14.001576 5,825 271 267 -384
2018-06-13 15:26:05 GMT 55.728653 14.019137 5,900 272 267 -640
2018-06-13 15:26:02 GMT 55.728516 14.025546 5,925 272 267 -768
2018-06-13 15:25:52 GMT 55.728008 14.047995 6,075 273 268 -896
2018-06-13 15:25:44 GMT 55.727638 14.064474 6,200 273 270 -832
2018-06-13 15:25:41 GMT 55.727451 14.071341 6,225 273 270 -832
2018-06-13 15:25:34 GMT 55.726959 14.087635 6,350 273 270 -832
2018-06-13 15:25:30 GMT 55.726776 14.095293 6,400 273 270 -896
2018-06-13 15:25:20 GMT 55.726273 14.118597 6,550 273 270 -896
2018-06-13 15:25:13 GMT 55.725769 14.134244 6,650 273 271 -896
2018-06-13 15:25:09 GMT 55.725590 14.141722 6,700 273 271 -960
2018-06-13 15:25:02 GMT 55.725262 14.158287 6,825 273 270 -960
2018-06-13 15:24:58 GMT 55.725079 14.166098 6,875 273 270 -896
2018-06-13 15:24:52 GMT 55.724533 14.180520 6,975 273 269 -704
2018-06-13 15:24:47 GMT 55.724396 14.190591 7,000 273 268 -256
2018-06-13 15:24:41 GMT 55.723892 14.203991 7,025 273 268 0
2018-06-13 15:24:36 GMT 55.723728 14.214849 7,025 273 267 64
2018-06-13 15:24:31 GMT 55.723354 14.225836 7,000 273 266 64
2018-06-13 15:24:26 GMT 55.723022 14.238115 7,000 273 265 64
2018-06-13 15:24:21 GMT 55.722656 14.247936 7,000 273 265 64
2018-06-13 15:24:16 GMT 55.722336 14.259671 7,000 273 265 0
2018-06-13 15:24:09 GMT 55.721958 14.274244 7,000 273 265 0
2018-06-13 15:24:05 GMT 55.721832 14.282809 7,000 273 266 0
2018-06-13 15:24:00 GMT 55.721447 14.293127 7,000 273 266 0
2018-06-13 15:23:54 GMT 55.721119 14.307547 7,000 273 266 0
2018-06-13 15:23:50 GMT 55.720936 14.316730 7,000 273 265 -64
2018-06-13 15:23:43 GMT 55.720596 14.329834 7,000 273 265 -64
2018-06-13 15:23:39 GMT 55.720276 14.338906 7,000 273 265 -64
2018-06-13 15:23:34 GMT 55.719910 14.350719 7,000 273 264 0
2018-06-13 15:23:27 GMT 55.719589 14.366205 7,000 273 264 0
2018-06-13 15:23:23 GMT 55.719223 14.374279 7,000 273 264 0
2018-06-13 15:23:18 GMT 55.718887 14.385738 7,000 273 264 0
2018-06-13 15:23:12 GMT 55.718719 14.396751 7,000 273 264 0
2018-06-13 15:23:08 GMT 55.718372 14.406252 7,000 274 263 0
2018-06-13 15:23:02 GMT 55.718048 14.419384 7,000 273 263 0
2018-06-13 15:22:51 GMT 55.717346 14.442777 7,000 273 263 0
2018-06-13 15:22:39 GMT 55.716660 14.469161 7,000 274 263 0
2018-06-13 15:22:35 GMT 55.716324 14.476805 7,000 274 263 0
2018-06-13 15:22:29 GMT 55.716000 14.490881 7,000 274 263 0
2018-06-13 15:22:26 GMT 55.715790 14.496044 7,000 274 263 0
2018-06-13 15:22:16 GMT 55.715115 14.518776 7,000 274 263 64
2018-06-13 15:22:06 GMT 55.714417 14.540663 7,000 274 264 0
2018-06-13 15:21:56 GMT 55.713718 14.561262 7,000 274 264 -64
2018-06-13 15:21:45 GMT 55.712879 14.585981 7,000 274 264 0
2018-06-13 15:21:35 GMT 55.712173 14.608238 7,000 274 264 64
2018-06-13 15:21:24 GMT 55.711533 14.630044 7,000 274 264 0
2018-06-13 15:21:14 GMT 55.710800 14.652599 7,000 274 265 -64
2018-06-13 15:21:04 GMT 55.710159 14.675404 7,000 274 264 0
2018-06-13 15:20:53 GMT 55.709290 14.697710 7,000 274 262 0
2018-06-13 15:20:43 GMT 55.708595 14.719963 7,000 274 261 64
2018-06-13 15:20:33 GMT 55.707916 14.741905 7,000 274 262 0
2018-06-13 15:20:23 GMT 55.707047 14.764876 7,000 274 263 0
2018-06-13 15:20:12 GMT 55.706360 14.786016 6,975 274 264 0
2018-06-13 15:20:01 GMT 55.705490 14.809487 7,050 274 266 -704
2018-06-13 15:19:50 GMT 55.704639 14.833345 7,175 274 267 -704
2018-06-13 15:19:40 GMT 55.703934 14.856179 7,300 274 267 -640
2018-06-13 15:19:29 GMT 55.703102 14.880552 7,425 274 266 -704
2018-06-13 15:19:18 GMT 55.702240 14.904619 7,550 274 266 -768
2018-06-13 15:19:08 GMT 55.701553 14.925343 7,700 274 270 -1024
2018-06-13 15:18:56 GMT 55.700542 14.952993 7,950 274 273 -1216
2018-06-13 15:18:49 GMT 55.699860 14.968622 8,100 274 274 -1408
2018-06-13 15:18:45 GMT 55.699677 14.976363 8,175 274 275 -1280
2018-06-13 15:18:38 GMT 55.698959 14.991961 8,350 274 276 -1344
2018-06-13 15:18:34 GMT 55.698635 15.000801 8,425 274 277 -1472
2018-06-13 15:18:29 GMT 55.698120 15.014066 8,575 274 278 -1344
2018-06-13 15:18:25 GMT 55.697800 15.023304 8,650 274 279 -1216
2018-06-13 15:18:18 GMT 55.697239 15.038052 8,800 274 280 -1472
2018-06-13 15:18:14 GMT 55.696930 15.047441 8,900 274 280 -1600
2018-06-13 15:18:07 GMT 55.696243 15.063005 9,075 274 281 -1600
2018-06-13 15:18:00 GMT 55.695564 15.078564 9,275 275 281 -1600
2018-06-13 15:17:57 GMT 55.695190 15.087919 9,375 275 281 -1856
2018-06-13 15:17:52 GMT 55.694870 15.097212 9,500 275 280 -1856
2018-06-13 15:17:46 GMT 55.694214 15.111694 9,700 275 280 -1792
2018-06-13 15:17:40 GMT 55.693516 15.124655 9,875 275 279 -1664
2018-06-13 15:17:35 GMT 55.692993 15.136580 9,975 275 280 -768
2018-06-13 15:17:31 GMT 55.692627 15.145153 10,000 275 282 -192
2018-06-13 15:17:25 GMT 55.691940 15.159468 10,000 275 282 -64
2018-06-13 15:17:15 GMT 55.690750 15.184104 10,000 275 282 0
2018-06-13 15:17:08 GMT 55.690063 15.198836 10,000 275 282 0
2018-06-13 15:17:05 GMT 55.689697 15.206909 10,000 275 282 0
2018-06-13 15:16:59 GMT 55.689045 15.219412 10,000 275 282 0
2018-06-13 15:16:55 GMT 55.688534 15.230656 10,000 275 282 0
2018-06-13 15:16:48 GMT 55.687820 15.245611 10,000 275 282 0
2018-06-13 15:16:44 GMT 55.687500 15.254933 10,000 275 282 0
2018-06-13 15:16:38 GMT 55.686810 15.269022 10,000 275 282 64
2018-06-13 15:16:34 GMT 55.686447 15.278404 10,000 275 283 0
2018-06-13 15:16:28 GMT 55.685760 15.292802 10,000 275 283 0
2018-06-13 15:16:23 GMT 55.685257 15.302457 10,000 275 283 0
2018-06-13 15:16:13 GMT 55.684204 15.326011 10,000 275 283 64
2018-06-13 15:16:03 GMT 55.683182 15.350218 10,000 275 284 -64
2018-06-13 15:15:52 GMT 55.682144 15.375117 10,000 275 284 0
2018-06-13 15:15:43 GMT 55.681316 15.396051 10,000 275 285 0
2018-06-13 15:15:40 GMT 55.680954 15.405079 10,000 275 285 0
2018-06-13 15:15:32 GMT 55.680267 15.422890 10,000 275 285 0
2018-06-13 15:15:19 GMT 55.679085 15.451841 10,000 275 285 -64
2018-06-13 15:15:11 GMT 55.678200 15.472097 10,000 275 285 0
2018-06-13 15:15:01 GMT 55.677174 15.494242 10,000 275 284 0
2018-06-13 15:14:51 GMT 55.676151 15.518446 10,000 275 282 64
2018-06-13 15:14:41 GMT 55.674957 15.541493 10,000 275 281 0
2018-06-13 15:14:30 GMT 55.673916 15.565653 10,000 275 280 0
2018-06-13 15:14:20 GMT 55.672897 15.589267 10,000 275 280 -64
2018-06-13 15:14:10 GMT 55.671844 15.613320 10,000 275 280 0
2018-06-13 15:13:59 GMT 55.670654 15.636874 10,000 275 280 0
2018-06-13 15:13:49 GMT 55.669632 15.660667 10,000 275 282 64
2018-06-13 15:13:37 GMT 55.668594 15.686895 10,000 274 285 -320
2018-06-13 15:13:26 GMT 55.668377 15.713968 10,150 265 287 -1344
2018-06-13 15:13:16 GMT 55.671616 15.736667 10,350 249 293 -512
2018-06-13 15:13:08 GMT 55.675873 15.755854 10,425 248 300 -576
2018-06-13 15:12:57 GMT 55.681690 15.780745 10,600 248 310 -704
2018-06-13 15:12:45 GMT 55.688049 15.808161 10,675 249 320 -1088
2018-06-13 15:12:34 GMT 55.694092 15.835044 10,875 249 324 -1472
2018-06-13 15:12:26 GMT 55.698990 15.856268 11,100 249 332 -1600
2018-06-13 15:12:23 GMT 55.700359 15.862885 11,175 249 336 -1792
2018-06-13 15:12:12 GMT 55.706406 15.889393 11,525 249 341 -2624
2018-06-13 15:12:02 GMT 55.712448 15.915860 12,025 249 343 -3008
2018-06-13 15:11:52 GMT 55.718048 15.941248 12,525 249 343 -3072
2018-06-13 15:11:42 GMT 55.724396 15.969876 13,050 249 347 -3072
2018-06-13 15:11:33 GMT 55.729523 15.992432 13,500 249 348 -3136
2018-06-13 15:11:28 GMT 55.732498 16.006496 13,750 249 350 -3008
2018-06-13 15:11:23 GMT 55.735600 16.020555 14,025 249 349 -3008
2018-06-13 15:11:13 GMT 55.741604 16.047335 14,525 249 352 -2944
2018-06-13 15:11:03 GMT 55.747467 16.074329 15,000 249 354 -2816
2018-06-13 15:10:57 GMT 55.750633 16.088533 15,250 249 355 -2752
2018-06-13 15:10:52 GMT 55.753784 16.102545 15,475 249 358 -2624
2018-06-13 15:10:49 GMT 55.755661 16.111107 15,600 249 359 -2496
2018-06-13 15:10:42 GMT 55.760082 16.131535 15,925 249 364 -2432
2018-06-13 15:10:38 GMT 55.762024 16.139915 16,050 249 366 -2368
2018-06-13 15:10:31 GMT 55.766510 16.160389 16,350 249 369 -2688
2018-06-13 15:10:21 GMT 55.773193 16.190020 16,750 249 377 -1984
2018-06-13 15:10:15 GMT 55.777084 16.207581 16,975 249 381 -2112
2018-06-13 15:10:11 GMT 55.779591 16.219082 17,125 249 385 -2496
2018-06-13 15:10:06 GMT 55.782578 16.232300 17,325 249 387 -3264
2018-06-13 15:10:00 GMT 55.786743 16.251610 17,700 249 388 -3840
2018-06-13 15:09:56 GMT 55.789459 16.263971 17,975 249 389 -3328
2018-06-13 15:09:50 GMT 55.793106 16.280239 18,200 249 392 -2368
2018-06-13 15:09:45 GMT 55.796494 16.295637 18,400 249 397 -2304
2018-06-13 15:09:39 GMT 55.800659 16.314116 18,625 249 403 -1984
2018-06-13 15:09:29 GMT 55.807297 16.345160 18,875 249 415 -1152
2018-06-13 15:09:23 GMT 55.811710 16.365080 18,975 249 426 -960
2018-06-13 15:09:19 GMT 55.814529 16.378450 19,075 250 432 -2048
2018-06-13 15:09:08 GMT 55.822605 16.415291 19,750 249 439 -5056
2018-06-13 15:08:59 GMT 55.829681 16.448614 20,625 249 439 -5440
2018-06-13 15:08:48 GMT 55.837315 16.483011 21,550 250 438 -5440
2018-06-13 15:08:41 GMT 55.842434 16.507044 22,200 249 437 -5440
2018-06-13 15:08:37 GMT 55.844715 16.518030 22,475 249 437 -5440
2018-06-13 15:08:27 GMT 55.852295 16.552900 23,475 249 433 -6208
2018-06-13 15:08:20 GMT 55.857426 16.575794 24,250 249 423 -7296
2018-06-13 15:08:16 GMT 55.860264 16.589184 24,750 249 421 -7488
2018-06-13 15:08:09 GMT 55.864655 16.609413 25,825 249 409 -7616
2018-06-13 15:08:06 GMT 55.867264 16.620815 26,050 249 406 -7552
2018-06-13 15:07:59 GMT 55.871796 16.642040 26,875 249 394 -6208
2018-06-13 15:07:55 GMT 55.874557 16.654329 27,325 249 394 -6400
2018-06-13 15:07:48 GMT 55.878887 16.674070 27,975 249 390 -5056
2018-06-13 15:07:45 GMT 55.881134 16.684486 28,250 249 389 -4992
2018-06-13 15:07:35 GMT 55.887772 16.714451 29,025 249 387 -4416
2018-06-13 15:07:24 GMT 55.894527 16.745739 29,775 249 386 -4032
2018-06-13 15:07:14 GMT 55.901047 16.775873 30,425 249 386 -3776
2018-06-13 15:07:04 GMT 55.907749 16.806679 31,075 249 387 -4032
2018-06-13 15:06:53 GMT 55.914688 16.839128 31,850 250 385 -4416
2018-06-13 15:06:45 GMT 55.919815 16.862516 32,475 250 382 -4352
2018-06-13 15:06:42 GMT 55.921341 16.869593 32,625 250 382 -4032
2018-06-13 15:06:32 GMT 55.927734 16.899719 33,175 250 384 -2752
2018-06-13 15:06:23 GMT 55.934143 16.930704 33,850 250 383 -4544
2018-06-13 15:06:12 GMT 55.940231 16.959312 34,425 250 383 -2560
2018-06-13 15:06:01 GMT 55.947037 16.991816 34,850 250 385 -2368
2018-06-13 15:05:51 GMT 55.953232 17.021568 35,200 250 387 -1984
2018-06-13 15:05:41 GMT 55.959457 17.051697 35,525 250 390 -1856
2018-06-13 15:05:31 GMT 55.966324 17.083574 35,850 250 391 -1472
2018-06-13 15:05:21 GMT 55.973145 17.116781 36,000 250 391 -192
2018-06-13 15:05:09 GMT 55.979626 17.147341 36,000 250 390 0
2018-06-13 15:04:59 GMT 55.986053 17.177790 36,000 250 390 -64
2018-06-13 15:04:56 GMT 55.987885 17.186363 36,000 250 390 -64
2018-06-13 15:04:50 GMT 55.992195 17.207766 36,000 250 390 -64
2018-06-13 15:04:44 GMT 55.995346 17.222485 36,000 250 390 -64
2018-06-13 15:04:38 GMT 55.999222 17.240982 36,000 250 390 64
2018-06-13 15:04:29 GMT 56.005142 17.270342 36,000 250 389 0
2018-06-13 15:04:19 GMT 56.011745 17.302265 36,000 250 389 -64
2018-06-13 15:04:14 GMT 56.014305 17.314453 36,025 251 389 64
2018-06-13 15:04:08 GMT 56.018265 17.333679 36,025 251 389 0
2018-06-13 15:04:01 GMT 56.022453 17.354622 36,025 251 389 64
2018-06-13 15:03:57 GMT 56.025055 17.366804 36,000 250 388 64
2018-06-13 15:03:48 GMT 56.030502 17.393854 36,000 250 389 0
2018-06-13 15:03:45 GMT 56.032425 17.402843 36,000 250 389 0
2018-06-13 15:03:37 GMT 56.037689 17.427895 36,000 250 389 0
2018-06-13 15:03:29 GMT 56.041855 17.448620 36,000 250 389 0
2018-06-13 15:03:26 GMT 56.044006 17.458992 36,000 250 389 64
2018-06-13 15:03:15 GMT 56.050919 17.492397 36,000 250 389 0
2018-06-13 15:03:06 GMT 56.057144 17.521946 36,000 250 388 0
2018-06-13 15:02:55 GMT 56.063557 17.552891 36,000 250 388 -64
2018-06-13 15:02:46 GMT 56.069641 17.582619 36,000 250 388 0
2018-06-13 15:02:43 GMT 56.071060 17.588778 36,000 250 387 0
2018-06-13 15:02:35 GMT 56.076546 17.615719 36,000 250 387 0
2018-06-13 15:02:24 GMT 56.082832 17.646103 36,000 250 386 0
2018-06-13 15:02:15 GMT 56.088791 17.675285 36,000 250 385 0
2018-06-13 15:02:12 GMT 56.090092 17.681808 36,000 250 385 0
2018-06-13 15:02:03 GMT 56.095539 17.708502 36,000 250 385 64
2018-06-13 15:01:52 GMT 56.102058 17.740088 36,000 250 384 -64
2018-06-13 15:01:48 GMT 56.104523 17.752104 36,000 251 383 0
2018-06-13 15:01:42 GMT 56.108505 17.771301 36,000 251 383 64
2018-06-13 15:01:31 GMT 56.115322 17.805147 36,000 250 382 0
2018-06-13 15:01:24 GMT 56.119049 17.823257 36,000 251 381 0
2018-06-13 15:01:21 GMT 56.120956 17.832808 36,000 251 381 0
2018-06-13 15:01:11 GMT 56.126961 17.862396 36,000 251 381 0
2018-06-13 15:01:01 GMT 56.132996 17.892817 36,000 251 380 0
2018-06-13 15:00:50 GMT 56.139812 17.926426 36,000 251 380 0
2018-06-13 15:00:42 GMT 56.144512 17.949772 36,000 251 379 0
2018-06-13 15:00:38 GMT 56.147369 17.963728 36,000 251 379 0
2018-06-13 15:00:29 GMT 56.152008 17.986593 36,000 250 379 0
2018-06-13 15:00:19 GMT 56.157898 18.015829 36,000 250 379 0
2018-06-13 15:00:15 GMT 56.160759 18.030281 36,000 250 379 0
2018-06-13 15:00:06 GMT 56.166000 18.056030 36,000 251 379 0
2018-06-13 14:59:58 GMT 56.170670 18.079168 36,000 251 379 0
2018-06-13 14:59:55 GMT 56.172863 18.090363 36,000 251 379 0
2018-06-13 14:59:45 GMT 56.178635 18.118343 36,000 251 379 0
2018-06-13 14:59:35 GMT 56.184502 18.148127 36,000 251 379 64
2018-06-13 14:59:30 GMT 56.187195 18.161566 36,000 251 379 -64
2018-06-13 14:59:24 GMT 56.190506 18.178940 36,000 251 379 0
2018-06-13 14:59:18 GMT 56.194427 18.198437 36,000 251 379 64
2018-06-13 14:59:14 GMT 56.196854 18.210754 36,000 251 379 0
2018-06-13 14:59:10 GMT 56.198730 18.220409 36,000 251 379 0
2018-06-13 14:59:03 GMT 56.202850 18.240467 36,000 251 380 -64
2018-06-13 14:58:52 GMT 56.209824 18.275843 36,000 251 380 0
2018-06-13 14:58:43 GMT 56.214993 18.301334 36,000 251 379 0
2018-06-13 14:58:35 GMT 56.219879 18.326740 36,000 251 379 0
2018-06-13 14:58:32 GMT 56.221024 18.332354 36,000 251 379 0
2018-06-13 14:58:23 GMT 56.226883 18.362066 36,000 251 379 0
2018-06-13 14:58:12 GMT 56.233292 18.394360 36,000 251 379 0
2018-06-13 14:58:05 GMT 56.237411 18.415167 36,000 251 379 0
2018-06-13 14:57:57 GMT 56.241669 18.436308 36,000 251 379 0
2018-06-13 14:57:51 GMT 56.246090 18.457975 36,000 251 380 64
2018-06-13 14:57:41 GMT 56.251583 18.485956 36,000 251 380 -64
2018-06-13 14:57:31 GMT 56.257263 18.515396 36,025 252 380 0
2018-06-13 14:57:22 GMT 56.261871 18.542862 36,000 256 381 64
2018-06-13 14:57:12 GMT 56.265884 18.571554 36,000 257 381 -64
2018-06-13 14:57:01 GMT 56.270874 18.607843 36,000 257 381 64
2018-06-13 14:56:51 GMT 56.275139 18.639164 36,000 257 381 0
2018-06-13 14:56:39 GMT 56.279663 18.672764 36,025 257 382 0
2018-06-13 14:56:34 GMT 56.282593 18.693071 36,000 257 382 0
2018-06-13 14:56:29 GMT 56.284031 18.704309 36,025 257 383 -64
2018-06-13 14:56:18 GMT 56.288727 18.737932 36,000 257 383 64
2018-06-13 14:56:09 GMT 56.292801 18.767229 36,000 257 383 -64
2018-06-13 14:55:59 GMT 56.297516 18.801519 36,000 257 382 64
2018-06-13 14:55:47 GMT 56.301727 18.833813 36,000 257 382 0
2018-06-13 14:55:36 GMT 56.306580 18.869350 36,000 257 382 0
2018-06-13 14:55:26 GMT 56.311214 18.903179 36,000 257 382 0
2018-06-13 14:55:13 GMT 56.316059 18.938799 36,000 257 382 0
2018-06-13 14:55:05 GMT 56.319782 18.967638 36,000 257 382 -64
2018-06-13 14:54:53 GMT 56.324203 19.000168 36,025 257 383 0
2018-06-13 14:54:43 GMT 56.328552 19.033813 36,025 257 383 0
2018-06-13 14:54:32 GMT 56.332855 19.066023 36,025 257 383 64
2018-06-13 14:54:22 GMT 56.336975 19.097816 36,025 257 383 0
2018-06-13 14:54:11 GMT 56.341415 19.132025 36,000 257 383 64
2018-06-13 14:54:00 GMT 56.345898 19.165907 36,000 257 383 -64
2018-06-13 14:53:53 GMT 56.348831 19.187880 36,025 257 380 0
2018-06-13 14:53:50 GMT 56.349995 19.197407 36,025 257 382 0
2018-06-13 14:53:39 GMT 56.354324 19.231224 36,000 257 382 64
2018-06-13 14:53:28 GMT 56.358559 19.263496 36,000 257 380 0
2018-06-13 14:53:22 GMT 56.361168 19.283323 36,000 257 379 0
2018-06-13 14:53:18 GMT 56.362656 19.293989 36,000 257 379 0
2018-06-13 14:53:07 GMT 56.367142 19.328114 36,000 257 378 0
2018-06-13 14:52:56 GMT 56.371490 19.361238 36,000 257 377 -64
2018-06-13 14:52:49 GMT 56.374573 19.384518 36,000 257 376 0
2018-06-13 14:52:46 GMT 56.375702 19.393200 36,000 257 376 0
2018-06-13 14:52:40 GMT 56.377972 19.410524 36,000 257 376 0
2018-06-13 14:52:36 GMT 56.380371 19.427572 36,000 257 376 0
2018-06-13 14:52:28 GMT 56.383095 19.448118 36,000 257 375 0
2018-06-13 14:52:19 GMT 56.386551 19.474848 36,000 257 375 0
2018-06-13 14:52:10 GMT 56.390682 19.505367 36,000 257 375 0
2018-06-13 14:52:03 GMT 56.392914 19.522539 36,000 257 375 0
2018-06-13 14:51:53 GMT 56.397217 19.555498 36,000 257 374 0
2018-06-13 14:51:42 GMT 56.401623 19.589653 36,000 258 374 0
2018-06-13 14:51:31 GMT 56.405640 19.621082 36,000 258 374 0
2018-06-13 14:51:21 GMT 56.409721 19.652910 36,000 258 373 0
2018-06-13 14:51:11 GMT 56.413723 19.684839 36,000 258 373 0
2018-06-13 14:50:58 GMT 56.418274 19.721458 36,000 258 373 0
2018-06-13 14:50:54 GMT 56.420380 19.737883 36,000 258 373 0
2018-06-13 14:50:46 GMT 56.422806 19.758661 36,000 258 373 0
2018-06-13 14:50:38 GMT 56.425735 19.782049 36,000 258 373 0
2018-06-13 14:50:31 GMT 56.428436 19.803688 36,000 258 372 0
2018-06-13 14:50:24 GMT 56.431366 19.827909 36,000 258 372 0
2018-06-13 14:50:17 GMT 56.433792 19.847551 36,000 258 372 0
2018-06-13 14:50:14 GMT 56.434799 19.855291 36,000 258 373 0
2018-06-13 14:50:07 GMT 56.437912 19.880342 36,000 258 373 0
2018-06-13 14:50:04 GMT 56.438396 19.884996 36,000 258 373 -64
2018-06-13 14:49:56 GMT 56.441704 19.910488 36,000 258 373 0
2018-06-13 14:49:53 GMT 56.443005 19.921217 36,000 257 372 0
2018-06-13 14:49:44 GMT 56.446289 19.946844 36,000 257 372 0
2018-06-13 14:49:40 GMT 56.447800 19.958725 36,000 257 372 0
2018-06-13 14:49:35 GMT 56.449848 19.974518 36,000 257 372 0
2018-06-13 14:49:22 GMT 56.454895 20.013594 36,000 257 372 0
2018-06-13 14:49:12 GMT 56.458511 20.042143 36,000 258 372 0
2018-06-13 14:49:01 GMT 56.462791 20.075798 36,000 258 373 0
2018-06-13 14:48:52 GMT 56.466419 20.104551 36,000 258 372 0
2018-06-13 14:48:41 GMT 56.470367 20.136192 36,000 258 372 0
2018-06-13 14:48:30 GMT 56.474663 20.171242 36,000 258 373 0
2018-06-13 14:48:25 GMT 56.476364 20.185131 36,000 258 373 0
2018-06-13 14:48:20 GMT 56.478287 20.199446 36,000 258 373 0
2018-06-13 14:48:17 GMT 56.480152 20.214329 36,000 258 373 0
2018-06-13 14:48:07 GMT 56.483555 20.241537 36,000 258 373 0
2018-06-13 14:47:59 GMT 56.486343 20.264866 36,000 258 372 0
2018-06-13 14:47:55 GMT 56.488159 20.279560 36,000 258 372 0
2018-06-13 14:47:48 GMT 56.490257 20.296383 36,000 258 373 0
2018-06-13 14:47:45 GMT 56.491467 20.306339 36,000 258 373 0
2018-06-13 14:47:36 GMT 56.495285 20.337925 36,000 258 373 0
2018-06-13 14:47:27 GMT 56.497936 20.361271 36,000 258 373 -64
2018-06-13 14:47:15 GMT 56.502453 20.398693 36,000 258 373 0
2018-06-13 14:47:07 GMT 56.505341 20.422297 36,000 258 372 0
2018-06-13 14:47:04 GMT 56.506393 20.432240 36,000 258 372 0
2018-06-13 14:46:57 GMT 56.509003 20.453047 36,000 258 373 0
2018-06-13 14:46:54 GMT 56.510513 20.466114 36,000 258 373 0
2018-06-13 14:46:48 GMT 56.512390 20.482344 36,000 259 373 0
2018-06-13 14:46:43 GMT 56.513763 20.494829 36,000 259 373 0
2018-06-13 14:46:36 GMT 56.516556 20.517550 36,000 259 373 0
2018-06-13 14:46:31 GMT 56.518066 20.531116 36,000 259 372 0
2018-06-13 14:46:23 GMT 56.521500 20.560413 36,000 258 372 0
2018-06-13 14:46:11 GMT 56.525265 20.592499 36,000 259 372 0
2018-06-13 14:46:05 GMT 56.527496 20.610867 36,000 259 372 0
2018-06-13 14:45:59 GMT 56.529545 20.629148 36,000 259 372 -64
2018-06-13 14:45:54 GMT 56.531456 20.644426 36,000 259 372 -64
2018-06-13 14:45:50 GMT 56.532990 20.657209 36,000 258 372 -64
2018-06-13 14:45:45 GMT 56.535095 20.675020 36,000 258 371 0
2018-06-13 14:45:39 GMT 56.536926 20.690502 36,000 258 371 0
2018-06-13 14:45:34 GMT 56.538857 20.706654 36,000 258 371 0
2018-06-13 14:45:27 GMT 56.541229 20.726824 36,000 258 371 0
2018-06-13 14:45:24 GMT 56.542603 20.737360 36,000 258 371 0
2018-06-13 14:45:17 GMT 56.545048 20.757551 36,000 258 371 0
2018-06-13 14:45:10 GMT 56.547363 20.777727 36,000 258 371 0
2018-06-13 14:45:03 GMT 56.550171 20.800381 36,000 258 370 -64
2018-06-13 14:44:55 GMT 56.553268 20.825832 36,000 258 370 0
2018-06-13 14:44:52 GMT 56.554077 20.831795 36,000 258 370 0
2018-06-13 14:44:44 GMT 56.557571 20.861578 36,000 258 370 0
2018-06-13 14:44:41 GMT 56.558037 20.866299 36,000 259 369 0
2018-06-13 14:44:34 GMT 56.560959 20.890587 36,000 259 369 0
2018-06-13 14:44:23 GMT 56.564552 20.922003 36,000 259 368 0
2018-06-13 14:44:20 GMT 56.565628 20.931202 36,000 259 368 0
2018-06-13 14:44:12 GMT 56.568371 20.953760 36,000 259 368 0
2018-06-13 14:44:09 GMT 56.569382 20.963079 36,000 259 368 0
2018-06-13 14:44:01 GMT 56.572311 20.987883 36,000 259 368 0
2018-06-13 14:43:48 GMT 56.576797 21.027000 36,000 259 368 0
2018-06-13 14:43:40 GMT 56.579681 21.051886 36,000 259 367 0
2018-06-13 14:43:30 GMT 56.583080 21.081905 36,000 259 367 0
2018-06-13 14:43:18 GMT 56.587097 21.116388 36,000 259 367 0
2018-06-13 14:43:08 GMT 56.590485 21.146965 36,000 259 366 0
2018-06-13 14:42:57 GMT 56.594440 21.179691 36,000 259 366 0
2018-06-13 14:42:52 GMT 56.595978 21.193829 36,000 259 365 0
2018-06-13 14:42:48 GMT 56.597698 21.209461 36,000 259 365 -64
2018-06-13 14:42:43 GMT 56.599091 21.221552 36,000 259 365 -64
2018-06-13 14:42:39 GMT 56.601006 21.237902 36,000 259 365 0
2018-06-13 14:42:34 GMT 56.602680 21.251810 36,000 259 365 0
2018-06-13 14:42:28 GMT 56.604401 21.268114 36,000 259 365 0
2018-06-13 14:42:25 GMT 56.605774 21.280174 36,000 259 364 -64
2018-06-13 14:42:17 GMT 56.607986 21.299034 36,000 259 364 0
2018-06-13 14:42:13 GMT 56.609207 21.310730 36,000 259 364 0
2018-06-13 14:42:05 GMT 56.612316 21.338018 36,000 259 363 0
2018-06-13 14:41:56 GMT 56.615204 21.364288 36,000 259 363 0
2018-06-13 14:41:52 GMT 56.616226 21.373194 36,000 259 363 0
2018-06-13 14:41:46 GMT 56.618500 21.393127 36,000 259 363 0
2018-06-13 14:41:43 GMT 56.619370 21.401024 36,000 259 363 0
2018-06-13 14:41:33 GMT 56.622986 21.433125 36,000 259 362 64
2018-06-13 14:41:26 GMT 56.625229 21.453295 36,000 259 362 64
2018-06-13 14:41:22 GMT 56.626423 21.464361 36,000 259 362 64
2018-06-13 14:41:16 GMT 56.628616 21.484709 36,000 259 362 -64
2018-06-13 14:41:10 GMT 56.630173 21.498270 36,000 259 361 -128
2018-06-13 14:41:03 GMT 56.632736 21.520844 36,025 259 361 -64
2018-06-13 14:41:00 GMT 56.633606 21.528397 36,025 259 360 384
2018-06-13 14:40:55 GMT 56.635300 21.545048 35,950 259 359 1216
2018-06-13 14:40:49 GMT 56.637360 21.563587 35,825 259 359 1216
2018-06-13 14:40:45 GMT 56.638733 21.576204 35,725 259 360 1216
2018-06-13 14:40:37 GMT 56.640945 21.596287 35,575 259 360 1280
2018-06-13 14:40:34 GMT 56.642204 21.606741 35,500 259 362 1344
2018-06-13 14:40:28 GMT 56.644066 21.624550 35,375 259 362 1344
2018-06-13 14:40:24 GMT 56.645416 21.636066 35,300 259 362 1024
2018-06-13 14:40:17 GMT 56.647976 21.658749 35,150 259 362 1024
2018-06-13 14:40:12 GMT 56.649399 21.672163 35,075 259 362 1152
2018-06-13 14:40:05 GMT 56.651596 21.690874 34,950 259 362 1216
2018-06-13 14:40:01 GMT 56.653515 21.707832 34,875 259 362 1216
2018-06-13 14:39:57 GMT 56.654388 21.716795 34,775 259 362 1216
2018-06-13 14:39:54 GMT 56.655235 21.724579 34,725 259 362 1280
2018-06-13 14:39:50 GMT 56.656586 21.736107 34,650 259 362 1344
2018-06-13 14:39:45 GMT 56.658634 21.754524 34,500 259 362 1408
2018-06-13 14:39:41 GMT 56.659515 21.762886 34,425 259 362 1472
2018-06-13 14:39:33 GMT 56.662594 21.789965 34,225 259 363 1408
2018-06-13 14:39:23 GMT 56.665573 21.817696 34,000 259 363 1408
2018-06-13 14:39:14 GMT 56.668442 21.842623 33,825 259 363 1344
2018-06-13 14:39:11 GMT 56.669495 21.853523 33,725 259 363 1472
2018-06-13 14:39:01 GMT 56.672741 21.883171 33,475 260 364 1600
2018-06-13 14:38:50 GMT 56.676140 21.915510 33,200 260 366 1472
2018-06-13 14:38:39 GMT 56.679630 21.948557 32,925 260 366 1472
2018-06-13 14:38:29 GMT 56.682861 21.980209 32,675 260 366 1344
2018-06-13 14:38:22 GMT 56.684784 21.999350 32,525 260 366 1344
2018-06-13 14:38:19 GMT 56.686150 22.013323 32,425 260 365 1408
2018-06-13 14:38:09 GMT 56.688858 22.039003 32,225 259 364 1472
2018-06-13 14:38:06 GMT 56.689911 22.049217 32,150 259 364 1472
2018-06-13 14:37:59 GMT 56.692337 22.071533 31,950 259 364 1600
2018-06-13 14:37:56 GMT 56.693161 22.078915 31,875 259 364 1600
2018-06-13 14:37:49 GMT 56.695587 22.102089 31,675 260 364 1664
2018-06-13 14:37:45 GMT 56.696640 22.111273 31,600 260 364 1664
2018-06-13 14:37:39 GMT 56.698669 22.130541 31,400 260 365 2048
2018-06-13 14:37:33 GMT 56.700348 22.147579 31,200 260 365 2048
2018-06-13 14:37:28 GMT 56.701904 22.162085 31,050 260 366 2112
2018-06-13 14:37:22 GMT 56.703781 22.180967 30,800 260 367 2240
2018-06-13 14:37:18 GMT 56.705189 22.193445 30,650 260 369 2304
2018-06-13 14:37:14 GMT 56.706894 22.210064 30,450 260 370 2432
2018-06-13 14:37:07 GMT 56.708817 22.228260 30,200 260 372 2496
2018-06-13 14:37:02 GMT 56.710327 22.244053 29,975 260 375 2688
2018-06-13 14:36:57 GMT 56.711884 22.259073 29,750 260 376 2752
2018-06-13 14:36:52 GMT 56.713440 22.274780 29,500 260 378 2944
2018-06-13 14:36:47 GMT 56.715103 22.289930 29,275 260 380 3136
2018-06-13 14:36:42 GMT 56.717010 22.308714 28,925 260 383 3200
2018-06-13 14:36:35 GMT 56.718933 22.328339 28,600 260 386 3328
2018-06-13 14:36:30 GMT 56.720261 22.342072 28,375 260 389 3264
2018-06-13 14:36:25 GMT 56.721992 22.358507 28,100 260 392 3264
2018-06-13 14:36:18 GMT 56.724243 22.380781 27,725 260 395 3072
2018-06-13 14:36:08 GMT 56.727814 22.415388 27,200 260 399 3072
2018-06-13 14:35:59 GMT 56.731247 22.448244 26,725 260 403 2624
2018-06-13 14:35:47 GMT 56.735184 22.486353 26,250 260 405 2368
2018-06-13 14:35:35 GMT 56.739170 22.525517 25,850 260 405 1920
2018-06-13 14:35:24 GMT 56.742756 22.560602 25,525 260 403 1728
2018-06-13 14:35:14 GMT 56.746033 22.594070 25,250 260 400 1472
2018-06-13 14:35:03 GMT 56.749969 22.632351 24,825 258 395 1408
2018-06-13 14:34:56 GMT 56.752670 22.653721 24,825 258 395 1408
2018-06-13 14:34:53 GMT 56.754440 22.664618 24,725 254 391 1664
2018-06-13 14:34:41 GMT 56.760635 22.701874 24,325 253 388 2240
2018-06-13 14:34:32 GMT 56.766033 22.732395 23,975 253 387 2304
2018-06-13 14:34:21 GMT 56.771896 22.766590 23,500 253 386 2560
2018-06-13 14:34:09 GMT 56.778416 22.805313 22,925 253 387 2944
2018-06-13 14:33:58 GMT 56.783386 22.834568 22,500 253 388 2752
2018-06-13 14:33:47 GMT 56.789566 22.870789 21,950 253 388 2752
2018-06-13 14:33:37 GMT 56.794941 22.901711 21,500 253 388 2688
2018-06-13 14:33:25 GMT 56.801147 22.937994 20,975 253 388 2688
2018-06-13 14:33:15 GMT 56.806412 22.969408 20,550 253 387 2624
2018-06-13 14:33:04 GMT 56.811951 23.002195 20,100 253 384 2496
2018-06-13 14:32:54 GMT 56.817425 23.034876 19,700 253 382 2048
2018-06-13 14:32:44 GMT 56.823059 23.068455 19,300 254 377 2112
2018-06-13 14:32:32 GMT 56.828411 23.099995 18,925 253 372 2432
2018-06-13 14:32:21 GMT 56.834106 23.134031 18,450 254 369 2624
2018-06-13 14:32:11 GMT 56.839096 23.163900 18,000 254 367 2752
2018-06-13 14:32:00 GMT 56.844238 23.195948 17,475 254 365 3008
2018-06-13 14:31:50 GMT 56.848988 23.225098 16,950 254 364 3072
2018-06-13 14:31:40 GMT 56.854294 23.256168 16,400 254 363 3136
2018-06-13 14:31:29 GMT 56.859509 23.288269 15,800 254 362 3264
2018-06-13 14:31:19 GMT 56.864861 23.320873 15,200 254 361 3456
2018-06-13 14:31:07 GMT 56.869904 23.351440 14,575 254 361 3520
2018-06-13 14:30:56 GMT 56.875259 23.383713 13,925 254 360 3520
2018-06-13 14:30:46 GMT 56.880085 23.413017 13,350 254 359 3200
2018-06-13 14:30:36 GMT 56.885017 23.443317 12,800 254 354 3072
2018-06-13 14:30:25 GMT 56.889908 23.473352 12,275 254 349 3200
2018-06-13 14:30:14 GMT 56.895172 23.505077 11,650 254 346 3456

Making use of Plane Finder data

You are free to use the raw flight data, aircraft information and images provided in this report for your own purposes provided the data is correctly attributed to Plane Finder. We ask that you please credit Plane Finder and link to planefinder.net in close proximity to the content.

Optionally one of the following logos (no smaller then 150x24px) can be used and must link to planefinder.net

Embedding the Plane Finder map

You are welcome to embed the Plane Finder playback map on your website to offer visitors a more interactive experience. We suggest using the following HTML code:

<iframe src="//planefinder.net/data/report/BT619-YL-BBX-7700-squawk-2018-06-13/map" width="800" height="600" seamless="seamless"></iframe>

Where our data comes from

Plane Finder has a global network of data feeds and antenna radars that receive data broadcast directly from aircraft. The primary technologies used are ADS-B and MLAT. We also show feeds from the FAA and a FLARM glider feed.

Click here to find out more about the Plane Finder network.

How we collect our data